createdAt,value
2023-04-20T00:01:11.441Z,101954.59
2023-04-20T00:03:38.899Z,101945.88
2023-04-20T00:06:06.248Z,101951.00
2023-04-20T00:08:33.415Z,101956.97
2023-04-20T00:11:00.487Z,101947.53
2023-04-20T00:13:27.795Z,101948.50
2023-04-20T00:15:54.940Z,101951.00
2023-04-20T00:18:22.088Z,101950.28
2023-04-20T00:20:49.152Z,101941.81
2023-04-20T00:23:16.390Z,101943.69
2023-04-20T00:25:43.504Z,101934.97
2023-04-20T00:28:10.721Z,101931.41
2023-04-20T00:30:37.864Z,101934.97
2023-04-20T00:33:04.959Z,101934.28
2023-04-20T00:35:32.103Z,101937.00
2023-04-20T00:37:59.023Z,101932.59
2023-04-20T00:40:26.044Z,101929.03
2023-04-20T00:42:53.013Z,101932.34
2023-04-20T00:45:22.414Z,101927.59
2023-04-20T00:47:49.587Z,101917.31
2023-04-20T00:50:16.577Z,101920.78
2023-04-20T00:52:43.586Z,101916.38
2023-04-20T00:55:10.758Z,101916.25
2023-04-20T00:57:37.824Z,101903.22
2023-04-20T01:00:07.137Z,101908.38
2023-04-20T01:02:34.208Z,101909.22
2023-04-20T01:05:02.152Z,101905.03
2023-04-20T01:07:30.529Z,101905.84
2023-04-20T01:09:57.517Z,101901.44
2023-04-20T01:12:24.493Z,101898.81
2023-04-20T01:14:51.542Z,101891.50
2023-04-20T01:17:18.712Z,101894.13
2023-04-20T01:19:45.669Z,101893.34
2023-04-20T01:22:15.673Z,101887.34
2023-04-20T01:24:42.645Z,101884.00
2023-04-20T01:27:09.628Z,101880.31
2023-04-20T01:29:36.578Z,101879.72
2023-04-20T01:32:03.679Z,101880.41
2023-04-20T01:34:30.713Z,101868.00
2023-04-20T01:36:57.614Z,101878.25
2023-04-20T01:39:24.689Z,101869.91
2023-04-20T01:41:51.884Z,101872.16
2023-04-20T01:44:18.841Z,101865.28
2023-04-20T01:46:45.836Z,101870.16
2023-04-20T01:49:12.868Z,101866.34
2023-04-20T01:51:39.801Z,101856.44
2023-04-20T01:54:06.932Z,101858.84
2023-04-20T01:56:34.017Z,101855.38
2023-04-20T01:59:00.941Z,101858.00
2023-04-20T02:01:27.954Z,101860.25
2023-04-20T02:03:54.956Z,101857.16
2023-04-20T02:06:21.987Z,101855.47
2023-04-20T02:08:48.922Z,101854.06
2023-04-20T02:11:15.949Z,101853.22
2023-04-20T02:13:42.920Z,101852.38
2023-04-20T02:16:09.949Z,101857.53
2023-04-20T02:18:37.675Z,101853.81
2023-04-20T02:21:06.375Z,101850.97
2023-04-20T02:23:33.408Z,101852.38
2023-04-20T02:26:00.335Z,101849.88
2023-04-20T02:28:27.317Z,101849.03
2023-04-20T02:30:54.384Z,101844.88
2023-04-20T02:33:22.176Z,101843.19
2023-04-20T02:35:49.373Z,101837.09
2023-04-20T02:38:16.354Z,101835.41
2023-04-20T02:40:43.346Z,101846.19
2023-04-20T02:43:10.492Z,101846.88
2023-04-20T02:45:37.448Z,101849.03
2023-04-20T02:48:04.664Z,101844.03
2023-04-20T02:50:31.607Z,101844.03
2023-04-20T02:52:58.597Z,101836.41
2023-04-20T02:55:25.529Z,101844.97
2023-04-20T02:57:52.582Z,101852.00
2023-04-20T03:00:20.047Z,101850.22
2023-04-20T03:02:47.312Z,101834.81
2023-04-20T03:05:14.528Z,101835.41
2023-04-20T03:07:41.467Z,101841.50
2023-04-20T03:10:09.435Z,101837.09
2023-04-20T03:12:36.401Z,101832.94
2023-04-20T03:15:05.553Z,101832.94
2023-04-20T03:17:32.600Z,101848.06
2023-04-20T03:19:59.546Z,101842.81
2023-04-20T03:22:27.160Z,101836.84
2023-04-20T03:24:54.386Z,101836.59
2023-04-20T03:27:21.368Z,101826.09
2023-04-20T03:29:49.192Z,101845.31
2023-04-20T03:32:16.159Z,101836.41
2023-04-20T03:34:43.307Z,101833.63
2023-04-20T03:37:10.261Z,101840.56
2023-04-20T03:39:37.272Z,101834.25
2023-04-20T03:42:04.527Z,101841.50
2023-04-20T03:44:31.458Z,101839.03
2023-04-20T03:46:58.366Z,101832.19
2023-04-20T03:49:25.930Z,101847.09
2023-04-20T03:51:52.963Z,101838.06
2023-04-20T03:54:20.006Z,101848.31
2023-04-20T03:56:46.958Z,101850.94
2023-04-20T03:59:13.993Z,101840.53
2023-04-20T04:01:41.060Z,101847.09
2023-04-20T04:04:08.243Z,101849.59
2023-04-20T04:06:35.871Z,101840.78
2023-04-20T04:09:02.855Z,101846.97
2023-04-20T04:11:30.581Z,101852.13
2023-04-20T04:13:59.667Z,101845.94
2023-04-20T04:16:26.781Z,101850.34
2023-04-20T04:18:53.863Z,101850.19
2023-04-20T04:21:21.330Z,101854.63
2023-04-20T04:23:48.292Z,101847.72
2023-04-20T04:26:15.324Z,101846.88
2023-04-20T04:28:42.317Z,101851.63
2023-04-20T04:31:10.141Z,101847.09
2023-04-20T04:33:37.140Z,101856.44
2023-04-20T04:36:04.876Z,101858.31
2023-04-20T04:38:33.727Z,101856.66
2023-04-20T04:41:00.977Z,101855.81
2023-04-20T04:43:27.918Z,101850.56
2023-04-20T04:45:55.856Z,101851.50
2023-04-20T04:48:23.680Z,101852.22
2023-04-20T04:50:50.606Z,101853.91
2023-04-20T04:53:17.679Z,101859.06
2023-04-20T04:55:44.586Z,101854.84
2023-04-20T04:58:11.838Z,101852.81
2023-04-20T05:00:38.777Z,101860.38
2023-04-20T05:03:05.849Z,101852.50
2023-04-20T05:05:33.208Z,101855.00
2023-04-20T05:08:00.426Z,101857.41
2023-04-20T05:10:27.459Z,101859.19
2023-04-20T05:12:54.483Z,101870.53
2023-04-20T05:15:21.495Z,101862.50
2023-04-20T05:17:50.102Z,101871.81
2023-04-20T05:20:17.160Z,101863.94
2023-04-20T05:22:44.281Z,101874.31
2023-04-20T05:25:13.890Z,101878.13
2023-04-20T05:27:41.207Z,101872.97
2023-04-20T05:30:19.478Z,101870.25
2023-04-20T05:32:51.182Z,101878.97
2023-04-20T05:35:22.039Z,101881.50
2023-04-20T05:37:49.145Z,101875.03
2023-04-20T05:40:16.288Z,101871.13
2023-04-20T05:42:43.471Z,101869.06
2023-04-20T05:45:11.032Z,101875.91
2023-04-20T05:47:38.061Z,101876.50
2023-04-20T05:50:05.500Z,101886.75
2023-04-20T05:52:32.494Z,101875.19
2023-04-20T05:55:00.425Z,101871.34
2023-04-20T05:57:27.425Z,101877.56
2023-04-20T05:59:56.299Z,101872.69
2023-04-20T06:02:23.418Z,101875.31
2023-04-20T06:04:50.722Z,101870.63
2023-04-20T06:07:17.966Z,101871.94
2023-04-20T06:09:44.917Z,101876.84
2023-04-20T06:12:12.043Z,101878.53
2023-04-20T06:14:39.123Z,101887.81
2023-04-20T06:17:06.526Z,101884.03
2023-04-20T06:19:33.542Z,101892.38
2023-04-20T06:22:01.259Z,101890.94
2023-04-20T06:24:28.361Z,101888.66
2023-04-20T06:26:55.360Z,101891.03
2023-04-20T06:29:22.336Z,101887.56
2023-04-20T06:31:49.372Z,101889.97
2023-04-20T06:34:17.017Z,101890.06
2023-04-20T06:36:44.363Z,101901.59
2023-04-20T06:39:12.733Z,101886.28
2023-04-20T06:41:39.922Z,101894.72
2023-04-20T06:44:07.233Z,101888.38
2023-04-20T06:46:34.423Z,101895.78
2023-04-20T06:49:02.001Z,101889.13
2023-04-20T06:51:29.759Z,101888.84
2023-04-20T06:53:57.103Z,101892.97
2023-04-20T06:56:24.292Z,101888.94
2023-04-20T06:58:51.439Z,101885.69
2023-04-20T07:01:18.610Z,101895.41
2023-04-20T07:03:47.365Z,101886.44
2023-04-20T07:06:14.847Z,101891.88
2023-04-20T07:08:42.167Z,101886.13
2023-04-20T07:11:09.277Z,101892.09
2023-04-20T07:13:36.299Z,101897.13
2023-04-20T07:16:03.726Z,101901.84
2023-04-20T07:18:33.357Z,101887.25
2023-04-20T07:21:02.405Z,101889.19
2023-04-20T07:23:29.806Z,101892.50
2023-04-20T07:25:57.336Z,101894.06
2023-04-20T07:28:24.490Z,101885.75
2023-04-20T07:30:52.017Z,101880.59
2023-04-20T07:33:19.219Z,101880.31
2023-04-20T07:35:47.167Z,101876.31
2023-04-20T07:38:16.202Z,101875.34
2023-04-20T07:40:43.474Z,101874.38
2023-04-20T07:43:10.598Z,101874.22
2023-04-20T07:45:39.886Z,101873.34
2023-04-20T07:48:07.160Z,101872.41
2023-04-20T07:50:34.236Z,101873.88
2023-04-20T07:53:01.425Z,101880.19
2023-04-20T07:55:28.540Z,101871.41
2023-04-20T07:57:59.787Z,101868.97
2023-04-20T08:00:27.437Z,101865.09
2023-04-20T08:02:54.819Z,101862.31
2023-04-20T08:05:23.086Z,101869.03
2023-04-20T08:07:50.393Z,101856.03
2023-04-20T08:10:17.659Z,101859.34
2023-04-20T08:12:44.934Z,101869.28
2023-04-20T08:15:12.245Z,101869.41
2023-04-20T08:17:39.361Z,101871.47
2023-04-20T08:20:07.180Z,101861.00
2023-04-20T08:22:34.550Z,101856.63
2023-04-20T08:25:01.592Z,101859.03
2023-04-20T08:27:31.006Z,101851.53
2023-04-20T08:29:58.309Z,101862.22
2023-04-20T08:32:27.231Z,101851.25
2023-04-20T08:34:54.956Z,101845.34
2023-04-20T08:37:22.094Z,101844.72
2023-04-20T08:39:49.162Z,101854.91
2023-04-20T08:42:17.522Z,101844.75
2023-04-20T08:44:44.673Z,101846.19
2023-04-20T08:47:12.538Z,101849.03
2023-04-20T08:49:41.036Z,101839.31
2023-04-20T08:52:11.509Z,101828.75
2023-04-20T08:54:45.947Z,101834.31
2023-04-20T08:57:16.738Z,101827.91
2023-04-20T08:59:43.977Z,101819.28
2023-04-20T09:02:12.939Z,101822.44
2023-04-20T09:04:41.402Z,101814.91
2023-04-20T09:07:17.721Z,101821.56
2023-04-20T09:09:52.451Z,101822.69
2023-04-20T09:12:21.617Z,101808.34
2023-04-20T09:14:49.796Z,101815.44
2023-04-20T09:17:18.230Z,101809.53
2023-04-20T09:19:46.297Z,101812.97
2023-04-20T09:22:13.402Z,101804.47
2023-04-20T09:24:41.681Z,101794.44
2023-04-20T09:27:12.016Z,101794.00
2023-04-20T09:29:39.210Z,101801.97
2023-04-20T09:32:06.545Z,101794.97
2023-04-20T09:34:44.291Z,101810.94
2023-04-20T09:37:15.210Z,101785.84
2023-04-20T09:39:43.539Z,101794.00
2023-04-20T09:42:13.316Z,101806.94
2023-04-20T09:44:41.014Z,101789.47
2023-04-20T09:47:09.209Z,101776.91
2023-04-20T09:49:36.267Z,101784.84
2023-04-20T09:52:04.505Z,101771.22
2023-04-20T09:54:32.097Z,101765.72
2023-04-20T09:57:00.448Z,101762.75
2023-04-20T09:59:28.276Z,101763.56
2023-04-20T10:01:55.563Z,101748.69
2023-04-20T10:04:23.321Z,101746.66
2023-04-20T10:06:53.606Z,101735.84
2023-04-20T10:09:23.031Z,101731.78
2023-04-20T10:11:54.084Z,101721.59
2023-04-20T10:14:23.668Z,101726.47
2023-04-20T10:16:54.118Z,101734.47
2023-04-20T10:19:21.459Z,101723.50
2023-04-20T10:21:49.543Z,101704.13
2023-04-20T10:24:19.615Z,101696.38
2023-04-20T10:26:47.700Z,101696.72
2023-04-20T10:29:17.917Z,101683.69
2023-04-20T10:31:45.016Z,101695.47
2023-04-20T10:34:12.162Z,101706.56
2023-04-20T10:36:39.581Z,101687.47
2023-04-20T10:39:09.946Z,101695.03
2023-04-20T10:41:37.596Z,101686.41
2023-04-20T10:44:08.248Z,101672.66
2023-04-20T10:46:35.476Z,101667.50
2023-04-20T10:49:02.805Z,101665.91
2023-04-20T10:51:30.479Z,101657.47
2023-04-20T10:53:59.672Z,101656.66
2023-04-20T10:56:27.548Z,101647.75
2023-04-20T10:58:54.985Z,101642.97
2023-04-20T11:01:22.480Z,101666.00
2023-04-20T11:03:51.812Z,101645.59
2023-04-20T11:06:19.110Z,101641.97
2023-04-20T11:08:47.052Z,101658.22
2023-04-20T11:11:17.355Z,101650.31
2023-04-20T11:13:44.480Z,101637.16
2023-04-20T11:16:12.947Z,101640.16
2023-04-20T11:18:43.212Z,101632.41
2023-04-20T11:21:10.413Z,101623.91
2023-04-20T11:23:38.860Z,101628.91
2023-04-20T11:26:06.109Z,101622.97
2023-04-20T11:28:35.004Z,101628.75
2023-04-20T11:31:02.477Z,101627.44
2023-04-20T11:33:30.171Z,101609.75
2023-04-20T11:35:58.297Z,101638.22
2023-04-20T11:38:28.636Z,101601.06
2023-04-20T11:40:56.503Z,101603.59
2023-04-20T11:43:23.870Z,101590.31
2023-04-20T11:45:50.975Z,101592.16
2023-04-20T11:48:19.324Z,101594.16
2023-04-20T11:50:46.628Z,101601.94
2023-04-20T11:53:15.428Z,101587.16
2023-04-20T11:55:42.590Z,101577.72
2023-04-20T11:58:09.870Z,101577.91
2023-04-20T12:00:37.339Z,101560.97
2023-04-20T12:03:04.686Z,101568.28
2023-04-20T12:05:32.044Z,101573.09
2023-04-20T12:07:59.075Z,101552.22
2023-04-20T12:10:26.253Z,101558.69
2023-04-20T12:12:54.147Z,101550.84
2023-04-20T12:15:21.429Z,101558.00
2023-04-20T12:17:48.762Z,101541.25
2023-04-20T12:20:15.926Z,101544.41
2023-04-20T12:22:43.320Z,101550.38
2023-04-20T12:25:10.581Z,101540.25
2023-04-20T12:27:37.937Z,101529.28
2023-04-20T12:30:05.389Z,101530.13
2023-04-20T12:32:32.674Z,101528.63
2023-04-20T12:35:00.000Z,101521.63
2023-04-20T12:37:27.877Z,101530.41
2023-04-20T12:39:55.229Z,101512.59
2023-04-20T12:42:22.615Z,101518.72
2023-04-20T12:44:49.597Z,101507.91
2023-04-20T12:47:17.150Z,101513.84
2023-04-20T12:49:44.364Z,101500.25
2023-04-20T12:52:11.736Z,101506.41
2023-04-20T12:54:39.087Z,101503.75
2023-04-20T12:57:06.449Z,101493.13
2023-04-20T12:59:33.642Z,101500.75
2023-04-20T13:02:01.169Z,101495.09
2023-04-20T13:04:28.536Z,101511.50
2023-04-20T13:06:56.321Z,101485.63
2023-04-20T13:09:27.497Z,101493.91
2023-04-20T13:11:55.000Z,101483.81
2023-04-20T13:14:22.195Z,101498.91
2023-04-20T13:16:49.627Z,101486.97
2023-04-20T13:19:17.141Z,101478.50
2023-04-20T13:21:44.229Z,101485.13
2023-04-20T13:24:11.569Z,101477.81
2023-04-20T13:26:38.834Z,101472.66
2023-04-20T13:29:05.980Z,101468.91
2023-04-20T13:31:34.046Z,101474.22
2023-04-20T13:34:01.724Z,101462.31
2023-04-20T13:36:28.996Z,101452.84
2023-04-20T13:38:56.796Z,101453.66
2023-04-20T13:41:24.340Z,101445.63
2023-04-20T13:43:52.057Z,101452.75
2023-04-20T13:46:20.552Z,101445.09
2023-04-20T13:48:47.886Z,101450.25
2023-04-20T13:51:14.835Z,101433.31
2023-04-20T13:53:49.050Z,101436.31
2023-04-20T13:56:17.003Z,101437.63
2023-04-20T13:58:44.204Z,101452.25
2023-04-20T14:01:13.576Z,101432.19
2023-04-20T14:03:42.285Z,101427.94
2023-04-20T14:06:09.798Z,101428.63
2023-04-20T14:08:37.523Z,101412.59
2023-04-20T14:11:05.028Z,101399.44
2023-04-20T14:13:32.681Z,101404.63
2023-04-20T14:16:00.018Z,101408.97
2023-04-20T14:18:27.636Z,101404.44
2023-04-20T14:20:55.404Z,101403.81
2023-04-20T14:23:22.527Z,101390.91
2023-04-20T14:25:50.098Z,101379.31
2023-04-20T14:28:18.290Z,101370.13
2023-04-20T14:30:46.495Z,101388.34
2023-04-20T14:33:13.742Z,101374.91
2023-04-20T14:35:41.244Z,101372.28
2023-04-20T14:38:08.415Z,101376.97
2023-04-20T14:40:35.894Z,101372.66
2023-04-20T14:43:03.121Z,101367.47
2023-04-20T14:45:30.366Z,101361.41
2023-04-20T14:47:57.713Z,101352.63
2023-04-20T14:50:28.051Z,101363.09
2023-04-20T14:52:55.881Z,101349.97
2023-04-20T14:55:25.339Z,101348.59
2023-04-20T14:57:55.894Z,101339.09
2023-04-20T15:00:25.051Z,101357.34
2023-04-20T15:02:53.894Z,101345.00
2023-04-20T15:05:21.705Z,101338.22
2023-04-20T15:07:51.238Z,101346.81
2023-04-20T15:10:19.969Z,101323.53
2023-04-20T15:12:48.126Z,101320.38
2023-04-20T15:15:15.927Z,101320.38
2023-04-20T15:17:43.144Z,101310.72
2023-04-20T15:20:10.523Z,101314.38
2023-04-20T15:22:37.928Z,101315.91
2023-04-20T15:25:06.017Z,101313.97
2023-04-20T15:27:33.485Z,101320.31
2023-04-20T15:30:01.103Z,101324.88
2023-04-20T15:32:30.732Z,101314.84
2023-04-20T15:34:57.908Z,101307.91
2023-04-20T15:37:25.256Z,101309.94
2023-04-20T15:39:56.458Z,101301.69
2023-04-20T15:42:23.725Z,101312.63
2023-04-20T15:44:51.159Z,101310.69
2023-04-20T15:47:18.367Z,101318.03
2023-04-20T15:49:45.723Z,101310.75
2023-04-20T15:52:13.122Z,101307.97
2023-04-20T15:54:40.705Z,101306.88
2023-04-20T15:57:07.974Z,101307.38
2023-04-20T15:59:35.421Z,101315.66
2023-04-20T16:02:03.357Z,101305.59
2023-04-20T16:04:31.173Z,101309.84
2023-04-20T16:06:58.470Z,101312.50
2023-04-20T16:09:25.886Z,101314.31
2023-04-20T16:11:53.422Z,101314.28
2023-04-20T16:14:21.121Z,101329.00
2023-04-20T16:16:48.892Z,101329.00
2023-04-20T16:19:16.336Z,101340.09
2023-04-20T16:21:44.032Z,101352.16
2023-04-20T16:24:11.389Z,101352.28
2023-04-20T16:26:39.582Z,101348.44
2023-04-20T16:29:09.101Z,101360.63
2023-04-20T16:31:37.864Z,101366.50
2023-04-20T16:34:05.516Z,101361.75
2023-04-20T16:36:34.532Z,101371.78
2023-04-20T16:39:05.978Z,101356.88
2023-04-20T16:41:33.377Z,101365.81
2023-04-20T16:44:00.979Z,101374.06
2023-04-20T16:46:28.483Z,101378.28
2023-04-20T16:48:56.297Z,101367.28
2023-04-20T16:51:23.586Z,101372.09
2023-04-20T16:53:51.578Z,101367.75
2023-04-20T16:56:19.257Z,101365.66
2023-04-20T16:58:46.897Z,101370.59
2023-04-20T17:01:15.555Z,101359.22
2023-04-20T17:03:44.709Z,101370.06
2023-04-20T17:06:12.098Z,101370.63
2023-04-20T17:08:39.775Z,101371.19
2023-04-20T17:11:07.202Z,101371.22
2023-04-20T17:13:35.025Z,101371.75
2023-04-20T17:16:06.131Z,101378.38
2023-04-20T17:18:35.746Z,101369.84
2023-04-20T17:21:03.212Z,101386.22
2023-04-20T17:23:30.397Z,101378.47
2023-04-20T17:26:01.697Z,101378.34
2023-04-20T17:28:31.237Z,101377.34
2023-04-20T17:30:59.091Z,101375.72
2023-04-20T17:33:30.939Z,101376.38
2023-04-20T17:35:59.002Z,101383.59
2023-04-20T17:38:26.482Z,101385.94
2023-04-20T17:40:54.076Z,101389.84
2023-04-20T17:43:21.570Z,101375.28
2023-04-20T17:45:50.842Z,101394.81
2023-04-20T17:48:18.396Z,101390.09
2023-04-20T17:50:52.772Z,101387.75
2023-04-20T17:53:20.700Z,101385.41
2023-04-20T17:55:48.311Z,101380.97
2023-04-20T17:58:16.125Z,101383.34
2023-04-20T18:00:43.993Z,101388.59
2023-04-20T18:03:12.264Z,101384.59
2023-04-20T18:05:39.668Z,101388.72
2023-04-20T18:08:06.844Z,101379.56
2023-04-20T18:10:34.883Z,101385.25
2023-04-20T18:13:02.438Z,101401.03
2023-04-20T18:15:29.647Z,101385.66
2023-04-20T18:17:57.078Z,101386.91
2023-04-20T18:20:24.477Z,101396.06
2023-04-20T18:22:52.866Z,101388.19
2023-04-20T18:25:20.522Z,101403.53
2023-04-20T18:27:47.825Z,101387.75
2023-04-20T18:30:15.100Z,101387.47
2023-04-20T18:32:42.573Z,101386.25
2023-04-20T18:35:10.132Z,101385.13
2023-04-20T18:37:37.974Z,101381.38
2023-04-20T18:40:06.526Z,101393.44
2023-04-20T18:42:33.532Z,101387.22
2023-04-20T18:45:00.942Z,101393.31
2023-04-20T18:47:28.132Z,101398.56
2023-04-20T18:49:55.893Z,101391.78
2023-04-20T18:52:23.590Z,101395.22
2023-04-20T18:54:50.931Z,101388.47
2023-04-20T18:57:18.532Z,101380.41
2023-04-20T18:59:45.831Z,101382.91
2023-04-20T19:02:14.017Z,101386.38
2023-04-20T19:04:41.641Z,101379.88
2023-04-20T19:07:09.168Z,101392.59
2023-04-20T19:09:37.647Z,101380.97
2023-04-20T19:12:04.930Z,101396.34
2023-04-20T19:14:31.905Z,101387.47
2023-04-20T19:16:59.205Z,101380.56
2023-04-20T19:19:26.362Z,101392.31
2023-04-20T19:21:54.351Z,101384.31
2023-04-20T19:24:21.700Z,101377.50
2023-04-20T19:26:49.069Z,101375.41
2023-04-20T19:29:16.528Z,101378.19
2023-04-20T19:31:43.591Z,101380.84
2023-04-20T19:34:13.793Z,101388.44
2023-04-20T19:36:41.584Z,101388.84
2023-04-20T19:39:09.068Z,101388.16
2023-04-20T19:41:36.123Z,101389.09
2023-04-20T19:44:06.683Z,101390.75
2023-04-20T19:46:34.486Z,101389.34
2023-04-20T19:49:02.043Z,101383.25
2023-04-20T19:51:29.480Z,101381.47
2023-04-20T19:53:56.961Z,101388.09
2023-04-20T19:56:24.061Z,101380.06
2023-04-20T19:58:51.159Z,101388.94
2023-04-20T20:01:18.383Z,101385.75
2023-04-20T20:03:45.775Z,101382.84
2023-04-20T20:06:12.826Z,101388.66
2023-04-20T20:08:39.716Z,101380.78
2023-04-20T20:11:06.667Z,101375.25
2023-04-20T20:13:33.458Z,101373.44
2023-04-20T20:16:00.763Z,101377.44
2023-04-20T20:18:27.958Z,101380.19
2023-04-20T20:20:55.148Z,101377.56
2023-04-20T20:23:22.144Z,101383.53
2023-04-20T20:25:49.097Z,101383.25
2023-04-20T20:28:16.311Z,101375.66
2023-04-20T20:30:45.541Z,101379.25
2023-04-20T20:33:13.654Z,101377.56
2023-04-20T20:35:41.180Z,101369.28
2023-04-20T20:38:08.231Z,101361.25
2023-04-20T20:40:35.488Z,101365.13
2023-04-20T20:43:02.529Z,101368.72
2023-04-20T20:45:29.639Z,101363.47
2023-04-20T20:47:56.661Z,101363.34
2023-04-20T20:50:23.730Z,101363.47
2023-04-20T20:52:50.722Z,101364.59
2023-04-20T20:55:17.647Z,101357.66
2023-04-20T20:57:44.740Z,101364.59
2023-04-20T21:00:12.428Z,101359.16
2023-04-20T21:02:39.380Z,101360.84
2023-04-20T21:05:06.817Z,101359.34
2023-04-20T21:07:33.822Z,101369.84
2023-04-20T21:10:00.647Z,101363.88
2023-04-20T21:12:27.499Z,101361.25
2023-04-20T21:14:54.434Z,101362.09
2023-04-20T21:17:21.430Z,101364.00
2023-04-20T21:19:48.280Z,101370.94
2023-04-20T21:22:15.399Z,101361.38
2023-04-20T21:24:42.324Z,101369.25
2023-04-20T21:27:09.529Z,101367.47
2023-04-20T21:29:36.683Z,101361.38
2023-04-20T21:32:03.724Z,101358.63
2023-04-20T21:34:30.895Z,101356.13
2023-04-20T21:37:03.974Z,101359.47
2023-04-20T21:39:31.185Z,101356.53
2023-04-20T21:41:59.312Z,101360.84
2023-04-20T21:44:26.615Z,101359.59
2023-04-20T21:46:53.669Z,101362.09
2023-04-20T21:49:21.380Z,101349.66
2023-04-20T21:51:48.332Z,101361.72
2023-04-20T21:54:15.346Z,101355.38
2023-04-20T21:56:42.215Z,101358.97
2023-04-20T21:59:09.181Z,101355.38
2023-04-20T22:01:36.111Z,101351.75
2023-04-20T22:04:03.323Z,101342.06
2023-04-20T22:06:32.266Z,101342.75
2023-04-20T22:08:59.126Z,101337.63
2023-04-20T22:11:26.411Z,101335.84
2023-04-20T22:13:53.280Z,101336.81
2023-04-20T22:16:21.574Z,101336.25
2023-04-20T22:18:49.495Z,101323.94
2023-04-20T22:21:16.840Z,101325.72
2023-04-20T22:23:43.848Z,101313.41
2023-04-20T22:26:11.000Z,101316.72
2023-04-20T22:28:38.251Z,101317.44
2023-04-20T22:31:05.324Z,101313.84
2023-04-20T22:33:32.233Z,101302.06
2023-04-20T22:35:59.173Z,101294.88
2023-04-20T22:38:26.221Z,101293.63
2023-04-20T22:40:54.030Z,101293.34
2023-04-20T22:43:21.999Z,101289.88
2023-04-20T22:45:49.182Z,101285.16
2023-04-20T22:48:16.274Z,101285.31
2023-04-20T22:50:43.143Z,101280.06
2023-04-20T22:53:10.021Z,101286.28
2023-04-20T22:55:36.889Z,101277.25
2023-04-20T22:58:03.683Z,101271.47
2023-04-20T23:00:30.616Z,101270.06
2023-04-20T23:03:00.111Z,101263.84
2023-04-20T23:05:29.306Z,101268.41
2023-04-20T23:07:56.782Z,101262.31
2023-04-20T23:10:28.860Z,101277.25
2023-04-20T23:12:55.924Z,101263.84
2023-04-20T23:15:23.187Z,101273.25
2023-04-20T23:17:51.115Z,101256.38
2023-04-20T23:20:18.116Z,101261.47
2023-04-20T23:22:45.070Z,101265.50
2023-04-20T23:25:11.980Z,101259.41
2023-04-20T23:27:38.733Z,101251.78
2023-04-20T23:30:06.987Z,101264.56
2023-04-20T23:32:33.943Z,101261.91
2023-04-20T23:35:00.863Z,101267.06
2023-04-20T23:37:27.745Z,101260.97
2023-04-20T23:39:54.516Z,101269.38
2023-04-20T23:42:21.336Z,101260.69
2023-04-20T23:44:48.181Z,101249.31
2023-04-20T23:47:15.995Z,101243.91
2023-04-20T23:49:42.986Z,101253.03
2023-04-20T23:52:09.862Z,101254.84
2023-04-20T23:54:36.795Z,101248.09
2023-04-20T23:57:03.749Z,101256.38
2023-04-20T23:59:30.555Z,101257.59
